Time;durP1;ratioP1;P1;durP2;ratioP2;P2;SDS_P1;SDS_P2;PMS_P1;PMS_P2;Temp;Humidity;BMP_temperature;BMP_pressure;BME280_temperature;BME280_humidity;BME280_pressure;Samples;Min_cycle;Max_cycle;Signal;HPM_P1;HPM_P2
2021/09/13 00:01:21;;;;;;;;;;;;;;;19.66;63.99;101122.46;1769258;81;20243;-76
2021/09/13 00:03:57;;;;;;;;;;;;;;;19.60;64.05;101118.63;1769283;81;20184;-75
2021/09/13 00:06:30;;;;;;;;;;;;;;;19.53;64.01;101116.23;1747154;81;20216;-75
2021/09/13 00:09:03;;;;;;;;;;;;;;;19.49;63.91;101115.72;1735986;81;20182;-75
2021/09/13 00:11:34;;;;;;;;;;;;;;;19.48;63.68;101114.05;1724741;83;20223;-75
2021/09/13 00:14:07;;;;;;;;;;;;;;;19.44;63.60;101124.29;1736498;82;20231;-78
2021/09/13 00:16:41;;;;;;;;;;;;;;;19.41;63.55;101123.48;1740122;82;20541;-75
2021/09/13 00:19:13;;;;;;;;;;;;;;;19.40;63.58;101126.04;1728252;81;20530;-72
2021/09/13 00:21:46;;;;;;;;;;;;;;;19.40;63.51;101121.81;1775423;80;20290;-73
2021/09/13 00:24:20;;;;;;;;;;;;;;;19.39;63.18;101118.16;1775538;80;20188;-74
2021/09/13 00:26:53;;;;;;;;;;;;;;;19.40;62.95;101117.59;1742267;80;20559;-73
2021/09/13 00:29:26;;;;;;;;;;;;;;;19.39;62.77;101110.29;1770096;80;20223;-74
2021/09/13 00:31:59;;;;;;;;;;;;;;;19.34;62.61;101114.59;1779194;80;20222;-73
2021/09/13 00:34:35;;;;;;;;;;;;;;;19.30;62.46;101109.30;1790949;80;20592;-72
2021/09/13 00:37:08;;;;;;;;;;;;;;;19.27;62.31;101115.57;1790411;80;20250;-71
2021/09/13 00:39:40;;;;;;;;;;;;;;;19.24;62.21;101109.13;1752387;80;20262;-73
2021/09/13 00:42:12;;;;;;;;;;;;;;;19.20;62.08;101111.73;1729254;83;20291;-73
2021/09/13 00:44:45;;;;;;;;;;;;;;;19.14;62.12;101101.66;1776937;80;20588;-72
2021/09/13 00:47:16;;;;;;;;;;;;;;;19.09;62.19;101103.73;1788491;78;20242;-73
2021/09/13 00:49:48;;;;;;;;;;;;;;;19.02;62.32;101109.74;1794403;80;20183;-79
2021/09/13 00:52:23;;;;;;;;;;;;;;;18.97;62.33;101107.00;1754818;80;20298;-77
2021/09/13 00:54:55;;;;;;;;;;;;;;;18.96;62.44;101112.96;1765811;80;20268;-74
2021/09/13 00:57:32;;;;;;;;;;;;;;;18.95;62.47;101107.08;1763224;81;20186;-75
2021/09/13 01:00:05;;;;;;;;;;;;;;;18.95;62.51;101107.08;1763078;81;20289;-74
2021/09/13 01:02:38;;;;;;;;;;;;;;;18.93;62.58;101111.59;1786534;80;20534;-74
2021/09/13 01:05:10;;;;;;;;;;;;;;;18.90;62.69;101112.19;1762986;81;20609;-75
2021/09/13 01:07:43;;;;;;;;;;;;;;;18.85;62.77;101111.44;1763885;80;20542;-74
2021/09/13 01:10:14;;;;;;;;;;;;;;;18.80;62.83;101110.11;1763001;80;20278;-73
2021/09/13 01:12:47;;;;;;;;;;;;;;;18.76;62.87;101115.52;1763022;81;20248;-71
2021/09/13 01:15:19;;;;;;;;;;;;;;;18.71;63.02;101115.58;1763126;81;20220;-74
2021/09/13 01:17:51;;;;;;;;;;;;;;;18.65;63.16;101116.80;1762807;81;20185;-74
2021/09/13 01:20:25;;;;;;;;;;;;;;;18.59;63.38;101120.82;1762911;81;20531;-73
2021/09/13 01:22:57;;;;;;;;;;;;;;;18.55;63.48;101115.55;1763082;81;20359;-73
2021/09/13 01:25:30;;;;;;;;;;;;;;;18.55;63.55;101117.52;1763058;81;20253;-76
2021/09/13 01:28:02;;;;;;;;;;;;;;;18.57;63.60;101118.89;1786495;80;20298;-80
2021/09/13 01:30:34;;;;;;;;;;;;;;;18.60;63.55;101120.27;1794388;80;20251;-78
2021/09/13 01:33:07;;;;;;;;;;;;;;;18.64;63.40;101118.50;1794628;80;20254;-78
2021/09/13 01:35:39;;;;;;;;;;;;;;;18.65;63.21;101124.41;1793943;80;20246;-77
2021/09/13 01:38:11;;;;;;;;;;;;;;;18.65;63.07;101125.83;1794346;80;20247;-78
2021/09/13 01:40:45;;;;;;;;;;;;;;;18.67;62.89;101139.01;1794310;80;20286;-78
2021/09/13 01:43:18;;;;;;;;;;;;;;;18.66;62.61;101135.94;1794365;80;20238;-75
2021/09/13 01:45:52;;;;;;;;;;;;;;;18.63;62.42;101132.30;1786040;80;20288;-78
2021/09/13 01:48:24;;;;;;;;;;;;;;;18.57;62.49;101125.92;1774772;80;20337;-74
2021/09/13 01:50:56;;;;;;;;;;;;;;;18.55;62.54;101131.58;1743789;82;20190;-75
2021/09/13 01:53:29;;;;;;;;;;;;;;;18.52;62.44;101139.23;1753699;81;20190;-74
2021/09/13 01:56:01;;;;;;;;;;;;;;;18.51;62.22;101128.54;1766869;81;20286;-74
2021/09/13 01:58:34;;;;;;;;;;;;;;;18.50;62.16;101132.50;1766942;81;20203;-75
2021/09/13 02:01:07;;;;;;;;;;;;;;;18.48;62.19;101131.13;1764495;81;20255;-75
2021/09/13 02:03:42;;;;;;;;;;;;;;;18.45;62.29;101123.27;1739759;82;20174;-76
2021/09/13 02:06:15;;;;;;;;;;;;;;;18.43;62.39;101129.23;1756719;81;20278;-77
2021/09/13 02:08:48;;;;;;;;;;;;;;;18.46;62.28;101139.04;1767419;81;20322;-76
2021/09/13 02:11:19;;;;;;;;;;;;;;;18.51;61.87;101134.72;1774233;81;20584;-76
2021/09/13 02:13:53;;;;;;;;;;;;;;;18.51;61.77;101132.77;1774097;81;20220;-76
2021/09/13 02:16:26;;;;;;;;;;;;;;;18.51;61.68;101127.69;1774037;80;20255;-76
2021/09/13 02:18:58;;;;;;;;;;;;;;;18.48;61.64;101117.06;1773994;81;20823;-74
2021/09/13 02:21:30;;;;;;;;;;;;;;;18.47;61.75;101123.83;1762265;80;20186;-74
2021/09/13 02:24:02;;;;;;;;;;;;;;;18.48;61.69;101121.28;1765241;81;20240;-74
2021/09/13 02:26:35;;;;;;;;;;;;;;;18.45;61.67;101121.87;1766129;81;20253;-75
2021/09/13 02:29:09;;;;;;;;;;;;;;;18.43;61.64;101126.97;1756453;81;20301;-83
2021/09/13 02:31:45;;;;;;;;;;;;;;;18.40;61.62;101128.99;1753912;81;20215;-87
2021/09/13 02:34:19;;;;;;;;;;;;;;;18.36;61.60;101123.69;1760595;81;20293;-79
2021/09/13 02:36:50;;;;;;;;;;;;;;;18.31;61.70;101120.94;1760489;81;20253;-82
2021/09/13 02:39:22;;;;;;;;;;;;;;;18.26;61.92;101123.78;1774174;81;20247;-73
2021/09/13 02:41:55;;;;;;;;;;;;;;;18.22;61.96;101126.95;1757963;81;20259;-75
2021/09/13 02:44:43;;;;;;;;;;;;;;;18.16;62.06;101128.97;1728663;81;20841;-83
2021/09/13 02:47:16;;;;;;;;;;;;;;;18.13;62.18;101127.33;1755909;81;20219;-81
2021/09/13 02:49:49;;;;;;;;;;;;;;;18.09;62.27;101127.09;1771495;81;20553;-81
2021/09/13 02:52:21;;;;;;;;;;;;;;;18.10;62.31;101126.53;1778864;81;20290;-82
2021/09/13 02:54:53;;;;;;;;;;;;;;;18.10;62.43;101127.94;1755888;81;20187;-78
2021/09/13 02:57:25;;;;;;;;;;;;;;;18.13;62.41;101132.95;1751956;81;20189;-80
2021/09/13 02:59:56;;;;;;;;;;;;;;;18.15;62.36;101125.04;1750995;81;20286;-71
2021/09/13 03:02:28;;;;;;;;;;;;;;;18.17;62.23;101132.63;1714422;82;21405;-73
2021/09/13 03:05:01;;;;;;;;;;;;;;;18.16;62.21;101130.95;1712888;83;20209;-74
2021/09/13 03:07:32;;;;;;;;;;;;;;;18.12;62.27;101134.09;1705699;83;20194;-74
2021/09/13 03:10:06;;;;;;;;;;;;;;;18.06;62.41;101136.69;1708091;83;20242;-83
2021/09/13 03:12:39;;;;;;;;;;;;;;;18.02;62.49;101139.27;1715088;83;20297;-78
2021/09/13 03:15:11;;;;;;;;;;;;;;;17.99;62.56;101135.63;1706838;83;20222;-80
2021/09/13 03:17:45;;;;;;;;;;;;;;;17.94;62.77;101137.12;1706542;83;20182;-78
2021/09/13 03:20:18;;;;;;;;;;;;;;;17.86;63.05;101132.13;1709991;83;20218;-76
2021/09/13 03:22:49;;;;;;;;;;;;;;;17.82;63.19;101142.86;1708701;83;20186;-74
2021/09/13 03:25:23;;;;;;;;;;;;;;;17.77;63.34;101133.08;1736351;83;20190;-85
2021/09/13 03:27:55;;;;;;;;;;;;;;;17.73;63.51;101139.86;1736289;83;20186;-87
2021/09/13 03:30:28;;;;;;;;;;;;;;;17.72;63.58;101135.94;1736325;81;20543;-75
2021/09/13 03:33:00;;;;;;;;;;;;;;;17.76;63.59;101142.64;1742712;81;20693;-77
2021/09/13 03:35:32;;;;;;;;;;;;;;;17.75;63.47;101142.38;1684398;84;20258;-78
2021/09/13 03:38:05;;;;;;;;;;;;;;;17.73;63.41;101147.47;1715869;83;20200;-73
2021/09/13 03:40:37;;;;;;;;;;;;;;;17.69;63.38;101142.98;1700166;84;20193;-75
2021/09/13 03:43:10;;;;;;;;;;;;;;;17.67;63.50;101146.66;1722283;83;21029;-74
2021/09/13 03:45:43;;;;;;;;;;;;;;;17.62;63.59;101145.31;1716698;83;20626;-78
2021/09/13 03:48:35;;;;;;;;;;;;;;;17.56;63.70;101146.48;1710145;83;20266;-72
2021/09/13 03:51:06;;;;;;;;;;;;;;;17.49;63.84;101144.59;1710160;83;20260;-75
2021/09/13 03:53:39;;;;;;;;;;;;;;;17.45;64.06;101149.70;1711632;83;20569;-76
2021/09/13 03:56:12;;;;;;;;;;;;;;;17.43;64.33;101147.77;1701397;83;20298;-83
2021/09/13 03:58:45;;;;;;;;;;;;;;;17.44;64.36;101153.64;1691028;85;20187;-79
2021/09/13 04:01:17;;;;;;;;;;;;;;;17.46;64.31;101142.95;1690779;85;20262;-80
2021/09/13 04:03:51;;;;;;;;;;;;;;;17.49;64.24;101151.62;1690858;85;20344;-79
2021/09/13 04:12:15;;;;;;;;;;;;;;;17.54;64.16;101149.31;1703060;83;20258;-77
2021/09/13 04:14:51;;;;;;;;;;;;;;;17.57;64.06;101147.34;1700460;83;20371;-76
2021/09/13 04:17:43;;;;;;;;;;;;;;;17.59;63.93;101147.88;1698567;83;20555;-76
2021/09/13 04:20:24;;;;;;;;;;;;;;;17.63;63.85;101152.59;1697316;83;20232;-81
2021/09/13 04:23:14;;;;;;;;;;;;;;;17.69;63.72;101152.00;1698394;83;20260;-80
2021/09/13 04:26:03;;;;;;;;;;;;;;;17.72;63.56;101159.26;1699503;83;20226;-80
2021/09/13 04:29:01;;;;;;;;;;;;;;;17.77;63.48;101159.77;1702273;83;20321;-80
2021/09/13 04:31:42;;;;;;;;;;;;;;;17.84;63.36;101161.66;1671726;84;20628;-83
2021/09/13 04:34:15;;;;;;;;;;;;;;;17.92;63.25;101166.66;1685096;83;20191;-79
2021/09/13 04:36:54;;;;;;;;;;;;;;;17.98;63.11;101159.84;1718146;83;20549;-80
2021/09/13 04:39:46;;;;;;;;;;;;;;;18.05;63.02;101165.94;1708142;83;20265;-84
2021/09/13 04:42:22;;;;;;;;;;;;;;;18.13;62.88;101161.06;1671433;83;20257;-81
2021/09/13 04:45:01;;;;;;;;;;;;;;;18.23;62.63;101168.80;1706434;83;20288;-83
2021/09/13 04:47:46;;;;;;;;;;;;;;;18.33;62.40;101173.49;1737591;82;20235;-81
2021/09/13 04:50:29;;;;;;;;;;;;;;;18.46;62.29;101165.17;1740579;82;20205;-86
2021/09/13 04:53:02;;;;;;;;;;;;;;;18.59;61.86;101172.05;1679962;83;20249;-81
2021/09/13 04:55:48;;;;;;;;;;;;;;;18.70;61.29;101169.34;1759176;81;20183;-81
2021/09/13 05:01:17;;;;;;;;;;;;;;;18.87;60.65;101173.88;1756474;81;20589;-82
2021/09/13 05:03:53;;;;;;;;;;;;;;;19.00;60.35;101172.56;1722884;81;20252;-78
2021/09/13 05:06:25;;;;;;;;;;;;;;;19.24;60.33;101176.72;1762051;81;20290;-75
2021/09/13 05:08:57;;;;;;;;;;;;;;;19.57;59.59;101179.25;1755163;81;20247;-76
2021/09/13 05:11:32;;;;;;;;;;;;;;;19.93;58.27;101171.83;1651058;86;20645;-80
2021/09/13 05:14:03;;;;;;;;;;;;;;;20.32;57.87;101172.78;1650784;87;20253;-76
2021/09/13 05:16:37;;;;;;;;;;;;;;;20.71;57.22;101173.91;1662410;85;20568;-76
2021/09/13 05:19:09;;;;;;;;;;;;;;;21.08;55.74;101170.81;1671656;84;20189;-84
2021/09/13 05:21:42;;;;;;;;;;;;;;;21.41;55.29;101167.19;1678265;85;20618;-80
2021/09/13 05:24:16;;;;;;;;;;;;;;;21.75;54.53;101171.12;1676942;84;20741;-80
2021/09/13 05:26:49;;;;;;;;;;;;;;;22.04;52.84;101163.55;1664988;84;20186;-85
2021/09/13 05:29:21;;;;;;;;;;;;;;;22.30;52.46;101168.77;1678404;85;20203;-82
2021/09/13 05:31:53;;;;;;;;;;;;;;;22.55;51.88;101169.47;1678350;85;20214;-81
2021/09/13 05:34:25;;;;;;;;;;;;;;;22.82;51.71;101164.95;1678205;85;20614;-80
2021/09/13 05:36:59;;;;;;;;;;;;;;;23.13;50.52;101162.81;1744386;81;20255;-80
2021/09/13 05:39:30;;;;;;;;;;;;;;;23.38;49.50;101162.86;1774101;81;20175;-80
2021/09/13 05:42:06;;;;;;;;;;;;;;;23.63;49.02;101165.41;1774276;81;20259;-79
2021/09/13 05:44:41;;;;;;;;;;;;;;;23.87;48.53;101167.11;1770444;81;20315;-81
2021/09/13 05:47:13;;;;;;;;;;;;;;;24.09;47.14;101168.34;1774190;81;20247;-80
2021/09/13 05:49:45;;;;;;;;;;;;;;;24.28;46.89;101168.77;1774319;81;20259;-80
2021/09/13 05:52:20;;;;;;;;;;;;;;;24.50;46.43;101174.20;1773645;81;20263;-78
2021/09/13 05:54:52;;;;;;;;;;;;;;;24.72;45.66;101173.92;1771401;81;20284;-81
2021/09/13 05:57:23;;;;;;;;;;;;;;;24.89;45.81;101165.30;1771488;81;20188;-80
2021/09/13 05:59:55;;;;;;;;;;;;;;;25.06;44.65;101167.42;1759825;81;20267;-85
2021/09/13 06:02:28;;;;;;;;;;;;;;;25.22;45.10;101170.48;1721182;83;20153;-81
2021/09/13 06:05:02;;;;;;;;;;;;;;;25.38;44.40;101166.72;1743087;82;20174;-80
2021/09/13 06:07:35;;;;;;;;;;;;;;;25.53;44.35;101169.52;1729703;82;20234;-77
2021/09/13 06:10:07;;;;;;;;;;;;;;;25.68;43.89;101173.13;1749645;82;20202;-84
2021/09/13 06:12:40;;;;;;;;;;;;;;;25.76;43.42;101169.34;1749695;82;20178;-87
2021/09/13 06:15:11;;;;;;;;;;;;;;;25.87;43.82;101179.12;1748772;82;20186;-85
2021/09/13 06:17:46;;;;;;;;;;;;;;;26.02;43.36;101182.16;1745650;81;20237;-85
2021/09/13 06:20:22;;;;;;;;;;;;;;;26.15;42.60;101174.49;1744535;80;20597;-88
2021/09/13 06:22:55;;;;;;;;;;;;;;;26.26;42.28;101179.37;1756745;81;20531;-78
2021/09/13 06:25:29;;;;;;;;;;;;;;;26.35;42.26;101177.27;1742617;82;20250;-87
2021/09/13 06:28:00;;;;;;;;;;;;;;;26.49;42.21;101179.75;1744488;82;20178;-83
2021/09/13 06:30:35;;;;;;;;;;;;;;;26.63;42.20;101184.56;1744536;82;20563;-83
2021/09/13 06:33:08;;;;;;;;;;;;;;;26.73;41.74;101181.22;1709038;83;20232;-83
2021/09/13 06:35:41;;;;;;;;;;;;;;;26.80;41.87;101178.59;1744442;82;20269;-85
2021/09/13 06:38:15;;;;;;;;;;;;;;;26.89;41.94;101189.30;1706116;82;20545;-85
2021/09/13 06:40:46;;;;;;;;;;;;;;;26.97;41.40;101185.48;1709416;84;20261;-85
2021/09/13 06:43:20;;;;;;;;;;;;;;;27.08;41.68;101185.46;1745391;82;20185;-83
2021/09/13 06:48:48;;;;;;;;;;;;;;;27.27;41.45;101192.59;1765058;80;20259;-85
2021/09/13 06:51:24;;;;;;;;;;;;;;;27.36;41.45;101193.30;1762508;81;20186;-85
2021/09/13 06:53:55;;;;;;;;;;;;;;;27.38;41.78;101188.28;1744538;82;20706;-80
2021/09/13 06:56:27;;;;;;;;;;;;;;;27.44;41.10;101195.40;1745327;82;20333;-84
2021/09/13 06:58:59;;;;;;;;;;;;;;;27.44;41.11;101190.27;1745549;82;20277;-81
2021/09/13 07:01:32;;;;;;;;;;;;;;;27.45;41.21;101193.39;1745277;82;20578;-83
2021/09/13 07:04:05;;;;;;;;;;;;;;;27.43;41.03;101192.31;1718918;82;20293;-83
2021/09/13 07:06:36;;;;;;;;;;;;;;;27.39;41.28;101207.67;1705337;83;20561;-78
2021/09/13 07:09:11;;;;;;;;;;;;;;;27.27;40.30;101204.00;1709397;83;20189;-78
2021/09/13 07:11:43;;;;;;;;;;;;;;;27.12;40.99;101209.81;1707174;83;20200;-82
2021/09/13 07:14:17;;;;;;;;;;;;;;;27.02;41.56;101206.05;1697889;84;20193;-81
2021/09/13 07:16:48;;;;;;;;;;;;;;;26.94;42.20;101206.98;1697684;84;20257;-80
2021/09/13 07:19:20;;;;;;;;;;;;;;;26.89;42.19;101205.79;1697615;84;20197;-81
2021/09/13 07:21:53;;;;;;;;;;;;;;;26.86;41.58;101209.95;1697564;84;20261;-79
2021/09/13 07:24:25;;;;;;;;;;;;;;;26.75;41.84;101208.18;1696042;83;20275;-80
2021/09/13 07:27:04;;;;;;;;;;;;;;;26.64;42.31;101209.83;1691738;83;20194;-82
2021/09/13 07:29:39;;;;;;;;;;;;;;;26.62;42.61;101212.22;1694725;83;20300;-79
2021/09/13 07:32:12;;;;;;;;;;;;;;;26.60;42.59;101210.33;1693772;83;20606;-82
2021/09/13 07:34:44;;;;;;;;;;;;;;;26.49;42.57;101212.52;1697201;84;20300;-81
2021/09/13 07:37:16;;;;;;;;;;;;;;;26.41;42.58;101217.16;1700711;83;20284;-78
2021/09/13 07:39:48;;;;;;;;;;;;;;;26.37;42.48;101211.92;1697046;83;20266;-81
2021/09/13 07:42:20;;;;;;;;;;;;;;;26.29;42.77;101213.44;1700307;82;20582;-82
2021/09/13 07:44:52;;;;;;;;;;;;;;;26.26;43.11;101219.25;1701188;83;20285;-80
2021/09/13 07:47:24;;;;;;;;;;;;;;;26.30;43.54;101216.53;1696586;84;20300;-81
2021/09/13 07:49:56;;;;;;;;;;;;;;;26.35;43.19;101216.30;1696517;83;20280;-81
2021/09/13 07:52:30;;;;;;;;;;;;;;;26.39;43.33;101218.70;1709439;82;20614;-82
2021/09/13 07:55:06;;;;;;;;;;;;;;;26.41;43.35;101222.02;1697452;84;20193;-82
2021/09/13 07:57:42;;;;;;;;;;;;;;;26.41;43.02;101223.44;1697496;84;20181;-84
2021/09/13 08:00:17;;;;;;;;;;;;;;;26.40;42.80;101224.63;1697414;84;20308;-84
2021/09/13 08:02:48;;;;;;;;;;;;;;;26.40;42.97;101228.30;1697691;84;20261;-84
2021/09/13 08:05:21;;;;;;;;;;;;;;;26.40;42.69;101229.72;1699359;84;20549;-89
2021/09/13 08:07:53;;;;;;;;;;;;;;;26.45;42.78;101228.68;1699862;84;20553;-89
2021/09/13 08:10:25;;;;;;;;;;;;;;;26.49;42.11;101221.91;1700000;84;20229;-87
2021/09/13 08:13:00;;;;;;;;;;;;;;;26.49;41.24;101226.77;1699833;84;20208;-87
2021/09/13 08:15:33;;;;;;;;;;;;;;;26.48;40.81;101225.11;1700010;84;20316;-91
2021/09/13 08:18:07;;;;;;;;;;;;;;;26.47;40.66;101227.73;1680926;84;20553;-87
2021/09/13 08:20:41;;;;;;;;;;;;;;;26.45;40.30;101225.22;1699782;84;20208;-86
2021/09/13 08:23:12;;;;;;;;;;;;;;;26.44;39.35;101223.56;1699752;84;20196;-85
2021/09/13 08:25:45;;;;;;;;;;;;;;;26.45;39.52;101221.56;1699630;84;20625;-88
2021/09/13 08:28:27;;;;;;;;;;;;;;;26.44;39.13;101221.29;1699906;84;20205;-88
2021/09/13 08:30:58;;;;;;;;;;;;;;;26.44;39.52;101224.14;1699687;84;20224;-85
2021/09/13 08:33:34;;;;;;;;;;;;;;;26.46;38.83;101221.79;1699908;83;20518;-86
2021/09/13 08:36:06;;;;;;;;;;;;;;;26.45;38.84;101218.09;1699892;84;20534;-87
2021/09/13 08:38:40;;;;;;;;;;;;;;;26.44;39.19;101219.28;1683162;83;20542;-86
2021/09/13 08:41:12;;;;;;;;;;;;;;;26.44;38.98;101222.72;1699785;84;20229;-87
2021/09/13 08:43:44;;;;;;;;;;;;;;;26.41;38.55;101221.44;1700000;84;20558;-88
2021/09/13 08:46:24;;;;;;;;;;;;;;;26.42;38.74;101222.25;1699747;84;20200;-87
2021/09/13 08:49:05;;;;;;;;;;;;;;;26.40;38.47;101222.59;1699716;83;20188;-85
2021/09/13 08:51:32;;;;;;;;;;;;;;;26.39;39.08;101212.39;1699227;83;20241;-89
2021/09/13 08:54:07;;;;;;;;;;;;;;;26.42;38.01;101220.83;1705751;83;20181;-89
2021/09/13 08:56:42;;;;;;;;;;;;;;;26.39;38.28;101218.70;1698517;83;20303;-84
2021/09/13 08:59:26;;;;;;;;;;;;;;;26.38;38.46;101223.55;1698359;83;20193;-84
2021/09/13 09:01:53;;;;;;;;;;;;;;;26.37;38.14;101219.63;1699674;84;20192;-87
2021/09/13 09:04:26;;;;;;;;;;;;;;;26.36;38.45;101215.95;1699176;82;20381;-87
2021/09/13 09:07:09;;;;;;;;;;;;;;;26.35;38.67;101215.72;1734202;82;20194;-84
2021/09/13 09:09:41;;;;;;;;;;;;;;;26.34;38.46;101213.22;1740841;82;20556;-80
2021/09/13 09:12:14;;;;;;;;;;;;;;;26.34;38.71;101211.80;1740202;82;20302;-80
2021/09/13 09:14:48;;;;;;;;;;;;;;;26.33;37.43;101214.41;1722463;82;20271;-79
2021/09/13 09:17:25;;;;;;;;;;;;;;;26.34;38.03;101210.37;1695245;84;20225;-80
2021/09/13 09:20:13;;;;;;;;;;;;;;;26.35;38.53;101210.61;1741732;82;20290;-78
2021/09/13 09:22:46;;;;;;;;;;;;;;;26.35;38.76;101214.30;1706733;82;20252;-80
2021/09/13 09:25:33;;;;;;;;;;;;;;;26.32;38.93;101208.45;1700657;84;20220;-79
2021/09/13 09:28:11;;;;;;;;;;;;;;;26.30;39.33;101210.25;1696567;84;20316;-80
2021/09/13 09:30:55;;;;;;;;;;;;;;;26.31;39.37;101204.78;1702549;84;20189;-78
2021/09/13 09:33:23;;;;;;;;;;;;;;;26.34;39.96;101206.09;1704495;84;20291;-80
2021/09/13 09:35:57;;;;;;;;;;;;;;;26.36;39.84;101203.14;1701858;82;20583;-80
2021/09/13 09:38:43;;;;;;;;;;;;;;;26.37;39.65;101205.38;1706279;82;20240;-87
2021/09/13 09:41:17;;;;;;;;;;;;;;;26.36;39.36;101205.14;1708336;83;20265;-89
2021/09/13 09:43:58;;;;;;;;;;;;;;;26.35;39.10;101204.91;1709752;83;20256;-88
2021/09/13 09:46:39;;;;;;;;;;;;;;;26.36;39.06;101200.87;1709899;84;20268;-80
2021/09/13 09:49:12;;;;;;;;;;;;;;;26.34;39.43;101206.09;1711660;83;20269;-84
2021/09/13 09:51:49;;;;;;;;;;;;;;;26.32;40.10;101199.32;1710174;83;20176;-88
2021/09/13 09:54:23;;;;;;;;;;;;;;;26.32;40.05;101202.17;1731894;82;20622;-89
2021/09/13 09:57:09;;;;;;;;;;;;;;;26.32;39.79;101196.47;1710015;82;20260;-87
2021/09/13 09:59:42;;;;;;;;;;;;;;;26.33;39.68;101198.74;1745772;81;20344;-88
2021/09/13 10:02:16;;;;;;;;;;;;;;;26.32;40.32;101199.32;1710089;82;20268;-89
2021/09/13 10:04:52;;;;;;;;;;;;;;;26.34;40.91;101194.70;1746126;82;20253;-89
2021/09/13 10:07:36;;;;;;;;;;;;;;;;;;;;;
2021/09/13 10:14:32;;;;;;;;;;;;;;;26.37;39.52;101199.68;1624871;88;20183;-84
2021/09/13 10:17:06;;;;;;;;;;;;;;;26.40;39.84;101201.84;1671047;82;20599;-85
2021/09/13 10:19:40;;;;;;;;;;;;;;;26.39;39.29;101195.91;1706356;83;20260;-84
2021/09/13 10:22:11;;;;;;;;;;;;;;;26.41;38.48;101196.37;1747663;82;20194;-83
2021/09/13 10:24:46;;;;;;;;;;;;;;;26.42;39.23;101185.20;1714373;83;20245;-80
2021/09/13 10:30:19;;;;;;;;;;;;;;;26.45;38.74;101186.75;1679979;83;20222;-79
2021/09/13 10:32:58;;;;;;;;;;;;;;;26.47;36.82;101182.13;1694450;83;20215;-83
2021/09/13 10:35:57;;;;;;;;;;;;;;;26.47;35.98;101180.13;1686518;84;20250;-79
2021/09/13 10:38:43;;;;;;;;;;;;;;;26.50;35.77;101175.70;1693844;83;20407;-78
2021/09/13 10:41:52;;;;;;;;;;;;;;;26.51;35.14;101176.78;1719742;83;20290;-78
2021/09/13 10:44:33;;;;;;;;;;;;;;;26.52;35.11;101169.89;1693473;83;20245;-85
2021/09/13 10:47:05;;;;;;;;;;;;;;;26.56;34.87;101168.03;1693484;83;20651;-80
2021/09/13 10:49:37;;;;;;;;;;;;;;;26.57;34.53;101165.42;1717701;83;20190;-91
2021/09/13 10:52:30;;;;;;;;;;;;;;;26.59;34.72;101167.31;1689739;85;20202;-89
2021/09/13 10:55:17;;;;;;;;;;;;;;;26.60;35.34;101166.15;1689750;83;20242;-90
2021/09/13 10:58:11;;;;;;;;;;;;;;;26.63;36.16;101166.84;1712199;81;20253;-81
2021/09/13 11:00:48;;;;;;;;;;;;;;;26.67;36.35;101161.26;1767172;81;20256;-84
2021/09/13 11:03:31;;;;;;;;;;;;;;;26.69;37.13;101162.57;1767254;81;20205;-83
2021/09/13 11:06:20;;;;;;;;;;;;;;;26.69;37.40;101166.03;1767237;81;20178;-84
2021/09/13 11:08:55;;;;;;;;;;;;;;;26.69;37.43;101163.19;1767181;81;20289;-77
2021/09/13 11:11:29;;;;;;;;;;;;;;;26.67;37.02;101164.95;1767526;81;20621;-83
2021/09/13 11:14:16;;;;;;;;;;;;;;;26.63;36.58;101160.33;1767308;81;20264;-84
2021/09/13 11:16:50;;;;;;;;;;;;;;;26.61;36.99;101165.53;1767282;81;20573;-79
2021/09/13 11:19:25;;;;;;;;;;;;;;;26.59;37.08;101157.95;1767436;81;20251;-78
2021/09/13 11:22:02;;;;;;;;;;;;;;;26.58;37.27;101159.95;1767187;81;20212;-85
2021/09/13 11:24:37;;;;;;;;;;;;;;;26.57;37.15;101156.05;1730921;83;20376;-84
2021/09/13 11:27:14;;;;;;;;;;;;;;;26.53;36.94;101150.78;1711324;84;20270;-83
2021/09/13 11:29:46;;;;;;;;;;;;;;;26.51;37.12;101143.20;1711233;84;20185;-79
2021/09/13 11:32:18;;;;;;;;;;;;;;;26.51;37.36;101146.05;1693655;79;20279;-78
2021/09/13 11:34:53;;;;;;;;;;;;;;;26.52;37.56;101144.86;1719335;83;20228;-85
2021/09/13 11:37:27;;;;;;;;;;;;;;;26.53;36.80;101140.81;1719161;83;20192;-90
2021/09/13 11:40:01;;;;;;;;;;;;;;;26.52;37.34;101138.55;1691207;83;20219;-79
2021/09/13 11:42:34;;;;;;;;;;;;;;;26.50;37.60;101130.95;1721315;83;20260;-86
2021/09/13 11:45:14;;;;;;;;;;;;;;;26.48;37.71;101129.64;1707562;82;20189;-78
2021/09/13 11:47:48;;;;;;;;;;;;;;;26.48;38.25;101121.09;1644604;86;20273;-88
2021/09/13 11:50:24;;;;;;;;;;;;;;;26.47;38.65;101117.44;1663218;85;20264;-89
2021/09/13 11:52:55;;;;;;;;;;;;;;;26.48;38.87;101119.67;1682477;85;20295;-83
2021/09/13 11:55:29;;;;;;;;;;;;;;;26.49;37.92;101118.48;1681914;84;20224;-89
2021/09/13 11:58:01;;;;;;;;;;;;;;;26.49;37.34;101122.17;1685693;85;20298;-82
2021/09/13 12:00:35;;;;;;;;;;;;;;;26.51;37.77;101115.52;1688179;85;20290;-83
2021/09/13 12:03:09;;;;;;;;;;;;;;;26.53;38.89;101114.58;1688159;85;20281;-82
2021/09/13 12:05:43;;;;;;;;;;;;;;;26.55;37.94;101117.93;1688294;84;20267;-80
2021/09/13 12:08:21;;;;;;;;;;;;;;;26.58;38.00;101112.11;1688356;85;20311;-85
2021/09/13 12:10:54;;;;;;;;;;;;;;;26.58;37.88;101108.65;1687833;85;20203;-80
2021/09/13 12:13:27;;;;;;;;;;;;;;;26.55;37.48;101112.23;1687919;85;20627;-83
2021/09/13 12:16:06;;;;;;;;;;;;;;;26.52;37.02;101110.05;1634182;88;20556;-84
2021/09/13 12:18:38;;;;;;;;;;;;;;;26.51;36.94;101106.97;1643461;86;20185;-78
2021/09/13 12:21:13;;;;;;;;;;;;;;;26.50;36.52;101111.01;1659228;85;20664;-76
2021/09/13 12:23:47;;;;;;;;;;;;;;;26.50;36.89;101108.73;1652865;85;20562;-81
2021/09/13 12:26:22;;;;;;;;;;;;;;;26.51;37.96;101107.58;1659933;85;20184;-79
2021/09/13 12:28:56;;;;;;;;;;;;;;;26.49;39.84;101102.81;1634111;87;20235;-83
2021/09/13 12:31:31;;;;;;;;;;;;;;;26.48;40.75;101105.42;1628478;88;20242;-82
2021/09/13 12:34:05;;;;;;;;;;;;;;;26.49;40.43;101101.37;1618590;85;20210;-80
2021/09/13 12:36:42;;;;;;;;;;;;;;;26.48;40.78;101101.16;1675699;85;20257;-82
2021/09/13 12:39:32;;;;;;;;;;;;;;;26.46;42.23;101102.11;1667553;85;20598;-81
2021/09/13 12:42:10;;;;;;;;;;;;;;;26.41;42.55;101097.48;1684113;85;20274;-80
2021/09/13 12:45:01;;;;;;;;;;;;;;;26.39;41.46;101105.54;1696168;83;20536;-82
2021/09/13 12:47:34;;;;;;;;;;;;;;;26.37;41.80;101099.96;1719604;83;20271;-82
2021/09/13 12:50:07;;;;;;;;;;;;;;;26.37;44.29;101111.36;1716591;82;20200;-85
2021/09/13 12:52:48;;;;;;;;;;;;;;;26.31;46.16;101109.93;1720813;82;20298;-84
2021/09/13 12:55:23;;;;;;;;;;;;;;;26.19;46.04;101105.07;1675765;84;20254;-80
2021/09/13 12:57:55;;;;;;;;;;;;;;;26.12;47.27;101102.56;1716670;82;20256;-81
2021/09/13 13:00:26;;;;;;;;;;;;;;;26.04;47.68;101097.20;1721907;83;20267;-80
2021/09/13 13:03:09;;;;;;;;;;;;;;;25.98;47.71;101099.23;1724955;80;20249;-79
2021/09/13 13:05:47;;;;;;;;;;;;;;;25.94;47.80;101091.14;1737328;82;20214;-79
2021/09/13 13:08:16;;;;;;;;;;;;;;;25.88;49.10;101091.10;1741506;82;20193;-78
2021/09/13 13:10:49;;;;;;;;;;;;;;;25.84;49.88;101084.47;1730229;82;20262;-80
2021/09/13 13:13:21;;;;;;;;;;;;;;;25.83;50.58;101084.20;1739517;82;20227;-79
2021/09/13 13:15:53;;;;;;;;;;;;;;;25.80;50.76;101085.77;1737993;82;20282;-79
2021/09/13 13:18:26;;;;;;;;;;;;;;;25.80;50.66;101084.35;1716582;82;20225;-79
2021/09/13 13:20:59;;;;;;;;;;;;;;;25.77;50.45;101083.61;1746183;82;20768;-80
2021/09/13 13:23:31;;;;;;;;;;;;;;;25.76;50.80;101086.23;1741932;82;20255;-80
2021/09/13 13:26:03;;;;;;;;;;;;;;;25.75;51.11;101085.15;1736928;82;20402;-80
2021/09/13 13:28:35;;;;;;;;;;;;;;;25.73;51.21;101092.61;1720507;83;20651;-78
2021/09/13 13:31:06;;;;;;;;;;;;;;;25.70;50.21;101092.48;1730032;83;20194;-79
2021/09/13 13:33:38;;;;;;;;;;;;;;;25.66;49.71;101084.44;1719918;83;20187;-80
2021/09/13 13:36:11;;;;;;;;;;;;;;;25.62;49.89;101093.42;1736097;82;20245;-80